• Join FlightAware (Why Join?)
  • Login
  • US Flag 
05:49AM EDT


 

Airport Tracker/Info


-or-


 

Live Flight TrackerFlight Track Log ✈ TGW437 ✈ 29-Mar-2014 ✈ YBAS / ASP - YMML / MEL

Flight Track Log - Related Links

Times and Time Zones

All times are in EDT time to prevent confusion due to time zone crossing. See the TGW437 flight status page for this flight to view local times or setup timezone preferences in your user account.

Time Position Orientation Groundspeed Altitude Reporting Facility
EDT Latitude Longitude Course Direction KTS MPH feet Rate Location/Type
02:09AM -23.8799 133.9447 150° Southeast 31,600  Level Aus ATC (Calculated)
02:10AM -23.9515 133.9885 150° Southeast 31,600 60 Level Aus ATC (Calculated)
02:12AM -24.1122 134.0871 151° Southeast  Level FlightAware Approximate
02:12AM -24.0947 134.0764 150° Southeast 31,600  Level Aus ATC (Calculated)
02:13AM -24.2255 134.1568 151° Southeast  Level FlightAware Approximate
02:13AM -24.2378 134.1644 150° Southeast 31,600  Level Aus ATC (Calculated)
02:14AM -24.2622 134.1794 151° Southeast  Level FlightAware Approximate
02:14AM -24.3094 134.2085 150° Southeast 31,600  Level Aus ATC (Calculated)
02:15AM -24.3959 134.2619 151° Southeast  Level FlightAware Approximate
02:15AM -24.3809 134.2526 150° Southeast 31,600  Level Aus ATC (Calculated)
02:16AM -24.4265 134.2808 151° Southeast  Level FlightAware Approximate
02:16AM -24.4524 134.2968 150° Southeast 31,600  Level Aus ATC (Calculated)
02:17AM -24.5239 134.3410 150° Southeast 31,600 60 Level Aus ATC (Calculated)
02:18AM -24.6604 134.4256 151° Southeast  Level FlightAware Approximate
02:18AM -24.6669 134.4297 150° Southeast 31,600  Level Aus ATC (Calculated)
02:19AM -24.6994 134.4607 148° Southeast  Level Estimated
02:19AM -24.7383 134.4741 150° Southeast 31,600  Level Aus ATC (Calculated)
02:20AM -24.7820 134.5083 148° Southeast  Level Estimated
02:20AM -24.8079 134.5156 150° Southeast 31,600  Level Aus ATC (Calculated)
02:22AM -24.9922 134.6422 148° Southeast  Level Estimated
02:22AM -25.0610 134.6767 149° Southeast 37,000  Level Aus ATC (Calculated)
02:23AM -25.1041 134.7131 150° Southeast  Level FlightAware Approximate
02:23AM -25.1694 134.7460 149° Southeast 37,000  Level Aus ATC (Calculated)
02:24AM -25.2014 134.7665 150° Southeast  Level FlightAware Approximate
02:24AM -25.2236 134.7807 149° Southeast 37,000  Level Aus ATC (Calculated)
02:26AM -25.4284 134.9123 150° Southeast  Level FlightAware Approximate
02:27AM -25.5391 134.9836 150° Southeast  Level FlightAware Approximate
02:27AM -25.6025 135.0245 149° Southeast 37,000  Level Aus ATC (Calculated)
02:29AM -25.8182 135.1640 150° Southeast  Level FlightAware Approximate
02:30AM -25.9287 135.2358 150° Southeast  Level FlightAware Approximate
02:30AM -25.9269 135.2346 149° Southeast 37,000  Level Aus ATC (Calculated)
02:30AM -26.0350 135.3049 149° Southeast 37,000  Level Aus ATC (Calculated)
02:32AM -26.1713 135.3938 150° Southeast  Level FlightAware Approximate
02:33AM -26.2817 135.4660 150° Southeast  Level FlightAware Approximate
02:33AM -26.3050 135.4813 149° Southeast 37,000  Level Aus ATC (Calculated)
02:33AM -26.4130 135.5520 149° Southeast 37,000  Level Aus ATC (Calculated)
02:35AM -26.5326 135.6306 150° Southeast  Level FlightAware Approximate
02:35AM -26.6288 135.6940 149° Southeast 37,000  Level Aus ATC (Calculated)
02:37AM -26.7072 135.7457 149° Southeast  Level FlightAware Approximate
02:37AM -26.8272 135.8250 149° Southeast 37,000  Level Aus ATC (Calculated)
02:39AM -27.0256 135.9566 149° Southeast  Level FlightAware Approximate
02:40AM -27.1357 136.0299 149° Southeast  Level FlightAware Approximate
02:41AM -27.2458 136.1033 149° Southeast  Level FlightAware Approximate
02:42AM -27.3559 136.1769 149° Southeast  Level FlightAware Approximate
02:42AM -27.5005 136.2738 148° Southeast 37,000  Level Aus ATC (Calculated)
02:44AM -27.6985 136.4070 149° Southeast  Level FlightAware Approximate
02:45AM -27.8084 136.4812 149° Southeast  Level FlightAware Approximate
02:46AM -27.9182 136.5555 149° Southeast  Level FlightAware Approximate
02:46AM -28.0285 136.6303 148° Southeast 37,000  Level Aus ATC (Calculated)
02:47AM -28.0281 136.6300 149° Southeast  Level FlightAware Approximate
02:47AM -28.1243 136.6955 148° Southeast 37,000  Level Aus ATC (Calculated)
02:49AM -28.2275 136.7658 149° Southeast  Level FlightAware Approximate
02:50AM -28.3370 136.8411 149° Southeast  Level FlightAware Approximate
02:50AM -28.5189 136.9667 148° Southeast 37,000  Level Aus ATC (Calculated)
02:52AM -28.7085 137.0981 149° Southeast  Level FlightAware Approximate
02:52AM -28.7427 137.1219 148° Southeast 37,000  Level Aus ATC (Calculated)
02:52AM -28.7427 137.1219 148° Southeast 37,000  Level Aus ATC (Calculated)
02:54AM -28.9103 137.2387 149° Southeast  Level FlightAware Approximate
02:54AM -28.9663 137.2778 147° Southeast 37,000  Level Aus ATC (Calculated)
02:55AM -29.1153 137.3821 147° Southeast 37,000  Level Aus ATC (Calculated)
02:56AM -29.1489 137.4057 149° Southeast  Level FlightAware Approximate
02:56AM -29.1898 137.4344 147° Southeast 37,000  Level Aus ATC (Calculated)
02:58AM -29.3741 137.5642 148° Southeast  Level FlightAware Approximate
02:59AM -29.4893 137.6455 148° Southeast  Level FlightAware Approximate
02:59AM -29.5617 137.6968 147° Southeast 37,000  Level Aus ATC (Calculated)
03:01AM -29.7535 137.8330 148° Southeast  Level FlightAware Approximate
03:02AM -29.8685 137.9150 148° Southeast  Level FlightAware Approximate
03:03AM -29.9834 137.9971 148° Southeast  Level FlightAware Approximate
03:04AM -30.0983 138.0795 148° Southeast  Level FlightAware Approximate
03:04AM -30.1557 138.1207 145° Southeast 37,000  Level Aus ATC (Calculated)
03:06AM -30.3490 138.2599 148° Southeast  Level FlightAware Approximate
03:06AM -30.3781 138.2810 143° Southeast 37,000  Level Aus ATC (Calculated)
03:07AM -30.5262 138.3882 142° Southeast 37,000  Level Aus ATC (Calculated)
03:09AM -30.7004 138.5446 139° Southeast  Level FlightAware Approximate
03:09AM -30.7395 138.5848 141° Southeast 37,000  Level Aus ATC (Calculated)
03:10AM -30.8091 138.6564 145° Southeast 37,000  Level Aus ATC (Calculated)
03:11AM -30.9480 138.7999 314° West 37,000  Level Aus ATC (Calculated)
03:12AM -30.8696 138.7064 139° Southeast 466 536 37,100  Climbing Aus ATC (RADAR)
03:13AM -30.9311 138.7687 139° Southeast 484 557 37,000 -120 Descending Aus ATC (RADAR)
03:14AM -31.0343 138.8827 137° Southeast 505 581 37,000  Level Aus ATC (RADAR)
03:14AM -31.0767 138.9283 137° Southeast 503 579 37,000  Level Aus ATC (RADAR)
03:14AM -31.1190 138.9694 140° Southeast 494 568 37,000  Level Aus ATC (RADAR)
03:15AM -31.1780 139.0314 138° Southeast 491 565 37,000  Level Aus ATC (RADAR)
03:16AM -31.2451 139.1020 138° Southeast 489 563 37,000  Level Aus ATC (RADAR)
03:16AM -31.3116 139.1711 138° Southeast 485 558 37,000  Level Aus ATC (RADAR)
03:17AM -31.3617 139.2231 138° Southeast 483 556 37,000  Level Aus ATC (RADAR)
03:17AM -31.4197 139.2834 138° Southeast 483 556 37,000  Level Aus ATC (RADAR)
03:18AM -31.4777 139.3467 137° Southeast 485 558 37,000 60 Level Aus ATC (RADAR)
03:19AM -31.5606 139.4333 138° Southeast 483 556 37,100 60 Climbing Aus ATC (RADAR)
03:19AM -31.6019 139.4763 138° Southeast 482 555 37,100  Level Aus ATC (RADAR)
03:20AM -31.6594 139.5373 138° Southeast 481 554 37,100  Level Aus ATC (RADAR)
03:21AM -31.7246 139.6059 138° Southeast 477 549 37,100 -120 Level Aus ATC (RADAR)
03:21AM -31.7818 139.6669 138° Southeast 477 549 37,000 -120 Descending Aus ATC (RADAR)
03:22AM -31.8390 139.7299 137° Southeast 480 552 37,000  Level Aus ATC (RADAR)
03:22AM -31.8955 139.7883 139° Southeast 473 544 37,000  Level Aus ATC (RADAR)
03:23AM -31.9516 139.8478 138° Southeast 468 539 37,000  Level Aus ATC (RADAR)
03:24AM -32.0247 139.9260 138° Southeast 473 544 37,000 60 Level Aus ATC (RADAR)
03:24AM -32.0728 139.9779 138° Southeast 472 543 37,100 60 Climbing Aus ATC (RADAR)
03:25AM -32.1298 140.0395 138° Southeast 476 548 37,100  Level Aus ATC (RADAR)
03:25AM -32.1870 140.1006 138° Southeast 477 549 37,100 -180 Level Aus ATC (RADAR)
03:25AM -32.1914 140.1042 138° Southeast 479 551 37,000  Descending FlightAware ADS-B (YPAD / ADL)
03:26AM -32.2928 140.2145 138° Southeast 477 549 37,100 60 Climbing Aus ATC (RADAR)
03:27AM -32.3496 140.2755 138° Southeast 477 549 37,100  Level Aus ATC (RADAR)
03:28AM -32.4068 140.3383 137° Southeast 481 554 37,100  Level Aus ATC (RADAR)
03:28AM -32.4636 140.3992 138° Southeast 476 548 37,100 -180 Level Aus ATC (RADAR)
03:28AM -32.4812 140.4174 137° Southeast 476 548 37,000  Descending FlightAware ADS-B (YPAD / ADL)
03:29AM -32.5434 140.4857 137° Southeast 470 541 37,100  Climbing Aus ATC (RADAR)
03:29AM -32.5802 140.5249 137° Southeast 474 545 37,000 -120 Descending FlightAware ADS-B (YPAD / ADL)
03:30AM -32.6353 140.5850 137° Southeast 473 544 37,000  Level FlightAware ADS-B (YPAD / ADL)
03:31AM -32.7039 140.6600 137° Southeast 473 544 37,000  Level FlightAware ADS-B (YPAD / ADL)
03:31AM -32.7643 140.7259 137° Southeast 474 545 37,000 60 Level FlightAware ADS-B (YPAD / ADL)
03:32AM -32.8173 140.7850 137° Southeast 471 542 37,100  Climbing Aus ATC (RADAR)
03:32AM -32.8340 140.8023 137° Southeast 475 547 37,000 -120 Descending FlightAware ADS-B (YPAD / ADL)
03:33AM -32.8934 140.8677 137° Southeast 476 548 37,000  Level FlightAware ADS-B (YPAD / ADL)
03:34AM -32.9309 140.9090 137° Southeast 476 548 37,000 60 Level FlightAware ADS-B (YPAD / ADL)
03:34AM -33.0573 141.0497 137° Southeast 462 532 37,100  Climbing Aus ATC (RADAR)
03:35AM -33.0891 141.0838 137° Southeast 473 544 37,000 -180 Descending FlightAware ADS-B (YPAD / ADL)
03:35AM -33.1359 141.1357 137° Southeast 473 544 37,000  Level FlightAware ADS-B (YPAD / ADL)
03:36AM -33.2010 141.2081 137° Southeast 472 543 37,000 60 Level FlightAware ADS-B (YPAD / ADL)
03:36AM -33.2584 141.2730 137° Southeast 471 542 37,100 60 Climbing Aus ATC (RADAR)
03:37AM -33.3063 141.3260 137° Southeast 472 543 37,100 -120 Level Aus ATC (RADAR)
03:37AM -33.3648 141.3905 137° Southeast 469 540 37,000  Descending FlightAware ADS-B (YPAD / ADL)
03:39AM -33.4637 141.5022 137° Southeast 466 536 37,100  Climbing Aus ATC (RADAR)
03:39AM -33.5436 141.5911 137° Southeast 468 539 37,100  Level Aus ATC (RADAR)
03:40AM -33.5827 141.6351 137° Southeast 465 535 37,100  Level Aus ATC (RADAR)
03:40AM -33.6360 141.6957 137° Southeast 458 527 37,100  Level Aus ATC (RADAR)
03:41AM -33.6989 141.7668 137° Southeast 464 534 37,100  Level Aus ATC (RADAR)
03:41AM -33.7382 141.8112 137° Southeast 464 534 37,100  Level Aus ATC (RADAR)
03:42AM -33.7943 141.8742 137° Southeast 468 539 37,100  Level Aus ATC (RADAR)
03:43AM -33.8564 141.9451 137° Southeast 467 537 37,100  Level Aus ATC (RADAR)
03:43AM -33.8957 141.9898 137° Southeast 467 537 37,100  Level Aus ATC (RADAR)
03:44AM -33.9428 142.0436 137° Southeast 467 537 37,100  Level Aus ATC (RADAR)
03:44AM -34.0206 142.1321 137° Southeast 462 532 37,100  Level Aus ATC (RADAR)
03:45AM -34.0596 142.1766 137° Southeast 462 532 37,100  Level Aus ATC (RADAR)
03:45AM -34.1136 142.2389 136° Southeast 461 531 37,100  Level Aus ATC (RADAR)
03:46AM -34.1760 142.3100 137° Southeast 463 533 37,100  Level Aus ATC (RADAR)
03:47AM -34.2303 142.3726 136° Southeast 463 533 37,100  Level Aus ATC (RADAR)
03:47AM -34.2848 142.4355 136° Southeast 465 535 37,100  Level Aus ATC (RADAR)
03:48AM -34.3316 142.4888 137° Southeast 462 532 37,100  Level Aus ATC (RADAR)
03:48AM -34.3859 142.5521 136° Southeast 463 533 37,100  Level Aus ATC (RADAR)
03:49AM -34.4638 142.6422 136° Southeast 463 533 37,100  Level Aus ATC (RADAR)
03:49AM -34.4948 142.6786 136° Southeast 465 535 37,100  Level Aus ATC (RADAR)
03:50AM -34.5332 142.7233 136° Southeast 461 531 37,100  Level Aus ATC (RADAR)
03:50AM -34.5870 142.7865 136° Southeast 460 529 37,100  Level Aus ATC (RADAR)
03:51AM -34.6492 142.8584 136° Southeast 462 532 37,100  Level Aus ATC (RADAR)
03:52AM -34.6876 142.9036 136° Southeast 460 529 37,100  Level Aus ATC (RADAR)
03:52AM -34.7415 142.9667 136° Southeast 459 528 37,100  Level Aus ATC (RADAR)
03:53AM -34.8032 143.0389 136° Southeast 462 532 37,100 -120 Level Aus ATC (RADAR)
03:53AM -34.8312 143.0704 136° Southeast 463 533 37,000 -120 Descending FlightAware ADS-B (YBRS)
03:54AM -34.8899 143.1394 136° Southeast 463 533 37,000  Level FlightAware ADS-B (YBRS)
03:55AM -34.9685 143.2270 142° Southeast 459 528 37,000  Level FlightAware ADS-B (YBRS)
03:55AM -35.0262 143.2758 148° Southeast 454 522 37,000  Level FlightAware ADS-B (YBRS)
03:56AM -35.0959 143.3282 148° Southeast 452 520 37,000 60 Level FlightAware ADS-B (YBRS)
03:56AM -35.1508 143.3717 148° Southeast 449 517 37,100  Climbing Aus ATC (RADAR)
03:56AM -35.1617 143.3780 148° Southeast 451 519 37,000 -180 Descending FlightAware ADS-B (YBRS)
03:57AM -35.2378 143.4355 148° Southeast 448 516 37,000  Level FlightAware ADS-B (YBRS)
03:58AM -35.3076 143.4884 148° Southeast 447 514 37,000  Level FlightAware ADS-B (YBRS)
03:58AM -35.3801 143.5433 148° Southeast 447 514 37,000  Level FlightAware ADS-B (YBRS)
03:59AM -35.4541 143.5998 148° Southeast 446 513 37,000 60 Level FlightAware ADS-B (YBRS)
04:00AM -35.5193 143.6508 148° Southeast 444 511 37,100  Climbing Aus ATC (RADAR)
04:00AM -35.5463 143.6702 148° Southeast 446 513 37,000 -120 Descending FlightAware ADS-B (YBRS)
04:01AM -35.6123 143.7207 148° Southeast 445 512 37,000  Level FlightAware ADS-B (YBRS)
04:01AM -35.6712 143.7658 148° Southeast 446 513 37,000 -600 Level FlightAware ADS-B (YBRS)
04:02AM -35.7409 143.8192 148° Southeast 449 517 36,300 -1,380 Descending FlightAware ADS-B (YBRS)
04:03AM -35.8048 143.8682 148° Southeast 440 506 35,300 -1,980 Descending FlightAware ADS-B (YBRS)
04:03AM -35.8589 143.9113 148° Southeast 436 502 34,100 -2,580 Descending Aus ATC (RADAR)
04:03AM -35.8734 143.9212 148° Southeast 443 510 33,600 -2,160 Descending FlightAware ADS-B (YBRS)
04:04AM -35.9431 143.9752 148° Southeast 436 502 32,300 -1,920 Descending FlightAware ADS-B (YBRS)
04:04AM -36.0032 144.0217 148° Southeast 430 495 31,200 -1,800 Descending FlightAware ADS-B (YBRS)
04:05AM -36.0626 144.0692 148° Southeast 422 486 30,200 -1,980 Descending Aus ATC (RADAR)
04:05AM -36.0681 144.0720 148° Southeast 423 487 29,900 -2,100 Descending FlightAware ADS-B (YBRS)
04:06AM -36.1202 144.1143 148° Southeast 416 479 29,000 -1,980 Descending Aus ATC (RADAR)
04:06AM -36.1355 144.1245 148° Southeast 418 481 28,600 -2,040 Descending FlightAware ADS-B (YBRS)
04:06AM -36.1851 144.1652 148° Southeast 409 471 27,700 -1,980 Descending Aus ATC (RADAR)
04:06AM -36.1996 144.1744 148° Southeast 412 474 27,300 -1,980 Descending FlightAware ADS-B (YBRS)
04:07AM -36.2587 144.2206 148° Southeast 407 468 26,200 -1,920 Descending FlightAware ADS-B (YBRS)
04:08AM -36.3218 144.2698 148° Southeast 401 461 24,900 -1,920 Descending FlightAware ADS-B (YBRS)
04:08AM -36.3724 144.3094 148° Southeast 397 457 23,900 -1,860 Descending FlightAware ADS-B (YBRS)
04:09AM -36.4345 144.3582 148° Southeast 391 450 22,700 -1,860 Descending FlightAware ADS-B (YBRS)
04:10AM -36.4877 144.4000 148° Southeast 385 443 21,600 -1,920 Descending FlightAware ADS-B (YBRS)
04:10AM -36.5020 144.4110 147° Southeast 384 442 21,300 -1,860 Descending FlightAware ADS-B (YMML / MEL)
04:10AM -36.5570 144.4540 147° Southeast 379 436 20,200 -1,800 Descending FlightAware ADS-B (YMML / MEL)
04:11AM -36.5769 144.4702 148° Southeast 377 434 19,800 -1,740 Descending FlightAware ADS-B (YBRS)
04:11AM -36.6040 144.4910 147° Southeast 375 432 19,200 -1,860 Descending FlightAware ADS-B (YMML / MEL)
04:11AM -36.6356 144.5167 148° Southeast 370 426 18,600 -1,980 Descending FlightAware ADS-B (YBRS)
04:11AM -36.6530 144.5300 147° Southeast 368 423 18,200 -1,920 Descending FlightAware ADS-B (YMML / MEL)
04:12AM -36.6812 144.5525 147° Southeast 364 419 17,600 -1,680 Descending FlightAware ADS-B (YBRS)
04:12AM -36.7260 144.5880 147° Southeast 359 413 16,700 -1,800 Descending FlightAware ADS-B (YMML / MEL)
04:12AM -36.7385 144.5980 148° Southeast 357 411 16,400 -1,920 Descending FlightAware ADS-B (YBRS)
04:13AM -36.7790 144.6300 147° Southeast 352 405 15,600 -1,740 Descending FlightAware ADS-B (YMML / MEL)
04:13AM -36.7821 144.6326 147° Southeast 351 404 15,500 -1,680 Descending FlightAware ADS-B (YBRS)
04:13AM -36.8088 144.6510 160° South 343 395 15,000 -1,560 Descending FlightAware ADS-B (YBRS)
04:14AM -36.8588 144.6637 160° South 339 390 14,200 -1,680 Descending Aus ATC (RADAR)
04:14AM -36.8711 144.6658 170° South 333 383 13,900 -1,560 Descending FlightAware ADS-B (YBRS)
04:15AM -36.9338 144.6803 170° South 328 377 12,900 -2,160 Descending Aus ATC (RADAR)
04:15AM -36.9564 144.6852 170° South 335 386 11,900 -2,700 Descending FlightAware ADS-B (YBRS)
04:16AM -37.0174 144.6984 170° South 337 388 10,500 -1,500 Descending FlightAware ADS-B (YBRS)
04:16AM -37.0827 144.7130 170° South 305 351 9,900 -840 Descending FlightAware ADS-B (YBRS)
04:17AM -37.1101 144.7192 170° South 297 342 9,600 -1,200 Descending FlightAware ADS-B (YBRS)
04:17AM -37.1358 144.7248 170° South 293 337 9,100 -1,860 Descending FlightAware ADS-B (YBRS)
04:17AM -37.1629 144.7307 170° South 287 330 8,400 -2,160 Descending FlightAware ADS-B (YBRS)
04:18AM -37.1954 144.7377 170° South 287 330 7,500 -1,920 Descending FlightAware ADS-B (YBRS)
04:18AM -37.2204 144.7431 170° South 284 327 7,000 -1,380 Descending FlightAware ADS-B (YBRS)
04:18AM -37.2460 144.7486 170° South 282 325 6,600 -1,260 Descending FlightAware ADS-B (YBRS)
04:19AM -37.2725 144.7541 171° South 284 327 6,200 -1,260 Descending FlightAware ADS-B (YBRS)
04:19AM -37.2972 144.7593 170° South 278 320 5,800 -1,200 Descending FlightAware ADS-B (YBRS)
04:19AM -37.3230 144.7647 170° South 275 316 5,400 -1,200 Descending FlightAware ADS-B (YBRS)
04:20AM -37.3484 144.7702 170° South 275 316 5,000 -1,200 Descending FlightAware ADS-B (YBRS)
04:20AM -37.3782 144.7777 169° South 273 314 4,500 -1,140 Descending FlightAware ADS-B (YBRS)
04:20AM -37.4025 144.7836 169° South 261 300 4,200 -780 Descending FlightAware ADS-B (YBRS)
04:21AM -37.4256 144.7894 169° South 240 276 4,000 -480 Descending FlightAware ADS-B (YBRS)
04:21AM -37.4454 144.7943 167° South 219 252 3,900 -180 Descending FlightAware ADS-B (YBRS)
04:21AM -37.4651 144.7997 170° South 205 236 3,900 -300 Level FlightAware ADS-B (YBRS)
04:22AM -37.4829 144.8033 172° South 196 226 3,700 -900 Descending FlightAware ADS-B (YBRS)
04:22AM -37.5016 144.8067 171° South 194 223 3,300 -1,200 Descending FlightAware ADS-B (YBRS)
04:23AM -37.5257 144.8112 172° South 190 219 2,800 -1,020 Descending FlightAware ADS-B (YBRS)
04:23AM -37.5395 144.8138 172° South 187 215 2,600 -960 Descending FlightAware ADS-B (YBRS)
04:23AM -37.5725 144.8199 172° South 158 182 1,900 -900 Descending FlightAware ADS-B (YBRS)
04:24AM -37.5950 144.8241 171° South 135 155 1,500 -660 Descending FlightAware ADS-B (YBRS)
04:25AM -37.6237 144.8293 171° South 129 148 1,000 -720 Descending Aus ATC (RADAR)
04:25AM -37.6330 144.8311 172° South 129 148 800 -660 Descending FlightAware ADS-B (YBRS)
04:26AM -37.6619 144.8363 172° South 127 146 300 -660 Descending Aus ATC (RADAR)